Terminal Aerodrome Forecast
Issued by NWS Newport/Morehead City, NC

Home | Current Version | Previous Version | Graphics & Text | Print | Product List | Glossary On
Versions: 1 2 3 4 5 6 7 8 9 10 11 12 13
269
FTUS42 KMHX 260815 AAA
TAFEWN
TAF AMD
KEWN 260815Z 2608/2706 00000KT 1SM BR BKN250
     FM261030 00000KT 5SM BR BKN250
     FM261300 VRB04KT P6SM BKN035
     FM261700 16007KT P6SM SCT045=

USA.gov is the U.S. government's official web portal to all federal, state and local government web resources and services.